createdAt,value
2019-04-06T00:00:05.423Z,12.03
2019-04-06T00:01:10.692Z,10.53
2019-04-06T00:02:21.600Z,11.10
2019-04-06T00:03:25.321Z,10.73
2019-04-06T00:04:28.953Z,11.00
2019-04-06T00:05:32.640Z,10.87
2019-04-06T00:06:36.256Z,11.47
2019-04-06T00:07:39.897Z,10.00
2019-04-06T00:08:43.471Z,10.63
2019-04-06T00:09:47.603Z,11.30
2019-04-06T00:10:51.280Z,11.37
2019-04-06T00:11:54.907Z,10.63
2019-04-06T00:12:58.634Z,10.47
2019-04-06T00:14:02.285Z,12.00
2019-04-06T00:15:07.556Z,11.50
2019-04-06T00:16:11.304Z,10.60
2019-04-06T00:17:14.883Z,11.40
2019-04-06T00:18:18.464Z,11.60
2019-04-06T00:19:22.122Z,10.77
2019-04-06T00:20:25.786Z,10.73
2019-04-06T00:21:29.481Z,11.00
2019-04-06T00:22:33.134Z,11.80
2019-04-06T00:23:36.768Z,11.30
2019-04-06T00:24:40.389Z,11.30
2019-04-06T00:25:45.004Z,10.33
2019-04-06T00:26:48.739Z,11.60
2019-04-06T00:27:52.455Z,10.53
2019-04-06T00:28:56.427Z,10.47
2019-04-06T00:29:59.996Z,9.83
2019-04-06T00:31:21.426Z,11.30
2019-04-06T00:32:29.557Z,10.50
2019-04-06T00:33:33.678Z,10.93
2019-04-06T00:34:37.730Z,11.03
2019-04-06T00:35:41.393Z,10.50
2019-04-06T00:36:45.051Z,10.93
2019-04-06T00:37:48.726Z,10.43
2019-04-06T00:38:52.353Z,9.60
2019-04-06T00:39:55.955Z,10.10
2019-04-06T00:40:59.625Z,9.93
2019-04-06T00:42:03.569Z,10.27
2019-04-06T00:43:07.243Z,9.53
2019-04-06T00:44:10.897Z,10.90
2019-04-06T00:45:14.632Z,10.30
2019-04-06T00:46:18.300Z,10.60
2019-04-06T00:47:21.978Z,11.47
2019-04-06T00:48:25.665Z,11.57
2019-04-06T00:49:29.286Z,12.00
2019-04-06T00:50:32.868Z,11.23
2019-04-06T00:51:36.523Z,11.43
2019-04-06T00:52:40.239Z,11.17
2019-04-06T00:53:43.936Z,11.17
2019-04-06T00:54:47.470Z,11.00
2019-04-06T00:55:55.813Z,10.60
2019-04-06T00:56:56.494Z,10.77
2019-04-06T00:58:00.134Z,10.80
2019-04-06T00:59:03.829Z,10.30
2019-04-06T01:00:08.923Z,10.67
2019-04-06T01:01:12.575Z,10.27
2019-04-06T01:02:16.159Z,10.63
2019-04-06T01:03:19.803Z,10.30
2019-04-06T01:04:23.941Z,9.30
2019-04-06T01:05:27.677Z,10.10
2019-04-06T01:06:31.304Z,9.50
2019-04-06T01:07:34.881Z,9.93
2019-04-06T01:08:38.503Z,9.13
2019-04-06T01:09:42.153Z,9.53
2019-04-06T01:10:45.785Z,9.67
2019-04-06T01:11:49.440Z,10.03
2019-04-06T01:12:53.162Z,10.20
2019-04-06T01:13:56.880Z,10.53
2019-04-06T01:15:00.536Z,10.17
2019-04-06T01:16:04.363Z,9.73
2019-04-06T01:17:08.009Z,10.53
2019-04-06T01:18:12.015Z,11.23
2019-04-06T01:19:15.586Z,10.53
2019-04-06T01:20:19.276Z,10.47
2019-04-06T01:21:23.062Z,10.27
2019-04-06T01:22:26.798Z,11.17
2019-04-06T01:23:30.436Z,10.20
2019-04-06T01:24:34.017Z,10.73
2019-04-06T01:25:37.767Z,10.10
2019-04-06T01:26:41.478Z,11.50
2019-04-06T01:27:46.019Z,10.83
2019-04-06T01:28:49.682Z,10.50
2019-04-06T01:29:53.258Z,11.03
2019-04-06T01:30:56.977Z,10.67
2019-04-06T01:32:00.570Z,9.87
2019-04-06T01:33:04.196Z,9.67
2019-04-06T01:34:07.830Z,10.93
2019-04-06T01:35:11.481Z,10.53
2019-04-06T01:36:15.140Z,11.17
2019-04-06T01:37:18.719Z,12.03
2019-04-06T01:38:22.356Z,9.93
2019-04-06T01:39:26.061Z,9.73
2019-04-06T01:40:30.075Z,10.50
2019-04-06T01:41:33.667Z,11.37
2019-04-06T01:42:37.301Z,11.67
2019-04-06T01:43:40.968Z,10.27
2019-04-06T01:44:44.605Z,11.60
2019-04-06T01:45:48.236Z,11.70
2019-04-06T01:46:51.975Z,10.93
2019-04-06T01:47:55.622Z,11.20
2019-04-06T01:48:59.271Z,10.67
2019-04-06T01:50:02.892Z,11.47
2019-04-06T01:51:06.962Z,10.97
2019-04-06T01:52:10.639Z,9.97
2019-04-06T01:53:14.271Z,10.53
2019-04-06T01:54:17.909Z,11.63
2019-04-06T01:55:21.474Z,10.33
2019-04-06T01:56:25.156Z,10.70
2019-04-06T01:57:28.844Z,9.47
2019-04-06T01:58:32.482Z,11.07
2019-04-06T01:59:36.183Z,9.93
2019-04-06T02:00:41.481Z,10.60
2019-04-06T02:01:46.691Z,10.93
2019-04-06T02:02:51.951Z,11.67
2019-04-06T02:03:55.589Z,10.60
2019-04-06T02:04:59.306Z,11.20
2019-04-06T02:06:03.416Z,11.10
2019-04-06T02:07:07.037Z,11.50
2019-04-06T02:08:10.729Z,12.80
2019-04-06T02:09:14.366Z,12.97
2019-04-06T02:10:18.287Z,13.03
2019-04-06T02:11:22.317Z,13.10
2019-04-06T02:12:25.936Z,13.13
2019-04-06T02:13:29.707Z,12.70
2019-04-06T02:14:33.348Z,13.50
2019-04-06T02:15:36.961Z,13.47
2019-04-06T02:16:40.921Z,12.63
2019-04-06T02:17:44.758Z,12.33
2019-04-06T02:18:48.405Z,13.17
2019-04-06T02:19:52.022Z,12.70
2019-04-06T02:20:55.756Z,12.93
2019-04-06T02:21:59.381Z,11.87
2019-04-06T02:23:03.071Z,13.60
2019-04-06T02:24:06.842Z,13.03
2019-04-06T02:25:10.749Z,13.50
2019-04-06T02:26:14.306Z,13.67
2019-04-06T02:27:17.936Z,14.20
2019-04-06T02:28:21.441Z,15.37
2019-04-06T02:29:25.389Z,19.20
2019-04-06T02:30:30.662Z,20.17
2019-04-06T02:31:44.703Z,20.40
2019-04-06T02:32:56.252Z,21.73
2019-04-06T02:34:04.505Z,21.20
2019-04-06T02:35:21.915Z,19.57
2019-04-06T02:36:36.379Z,20.43
2019-04-06T02:37:44.345Z,18.03
2019-04-06T02:38:53.165Z,16.93
2019-04-06T02:39:58.466Z,17.33
2019-04-06T02:41:06.663Z,16.67
2019-04-06T02:42:21.249Z,16.83
2019-04-06T02:43:26.553Z,15.80
2019-04-06T02:44:30.181Z,16.57
2019-04-06T02:45:33.808Z,16.77
2019-04-06T02:46:37.581Z,15.27
2019-04-06T02:47:41.377Z,13.93
2019-04-06T02:48:45.093Z,14.40
2019-04-06T02:49:48.975Z,13.87
2019-04-06T02:50:52.768Z,13.90
2019-04-06T02:51:56.528Z,14.40
2019-04-06T02:53:00.263Z,14.80
2019-04-06T02:54:03.904Z,13.83
2019-04-06T02:55:07.639Z,14.10
2019-04-06T02:56:11.582Z,13.97
2019-04-06T02:57:15.362Z,14.30
2019-04-06T02:58:18.985Z,13.47
2019-04-06T02:59:22.727Z,15.27
2019-04-06T03:00:26.691Z,14.77
2019-04-06T03:01:30.387Z,14.30
2019-04-06T03:02:34.130Z,14.93
2019-04-06T03:03:37.776Z,14.67
2019-04-06T03:04:41.449Z,15.53
2019-04-06T03:05:45.089Z,14.93
2019-04-06T03:06:48.736Z,15.30
2019-04-06T03:07:52.499Z,15.20
2019-04-06T03:08:56.151Z,14.50
2019-04-06T03:09:59.801Z,14.87
2019-04-06T03:11:03.457Z,13.97
2019-04-06T03:12:07.106Z,15.33
2019-04-06T03:13:10.936Z,15.00
2019-04-06T03:14:15.380Z,14.13
2019-04-06T03:15:18.987Z,14.30
2019-04-06T03:16:22.649Z,15.10
2019-04-06T03:17:26.309Z,14.83
2019-04-06T03:18:30.391Z,15.87
2019-04-06T03:19:34.074Z,15.07
2019-04-06T03:20:37.720Z,14.83
2019-04-06T03:21:41.366Z,14.33
2019-04-06T03:22:45.030Z,14.83
2019-04-06T03:23:51.254Z,15.07
2019-04-06T03:24:54.062Z,16.20
2019-04-06T03:25:57.831Z,15.20
2019-04-06T03:27:02.829Z,15.80
2019-04-06T03:28:07.050Z,16.07
2019-04-06T03:29:10.715Z,16.30
2019-04-06T03:30:14.658Z,15.83
2019-04-06T03:31:23.407Z,15.90
2019-04-06T03:32:23.674Z,15.57
2019-04-06T03:33:27.240Z,16.33
2019-04-06T03:34:31.373Z,15.87
2019-04-06T03:35:35.346Z,16.20
2019-04-06T03:36:38.981Z,16.93
2019-04-06T03:37:42.725Z,23.53
2019-04-06T03:38:46.386Z,17.50
2019-04-06T03:39:50.040Z,16.93
2019-04-06T03:40:53.680Z,16.60
2019-04-06T03:41:57.577Z,16.17
2019-04-06T03:43:01.406Z,15.97
2019-04-06T03:44:05.302Z,17.17
2019-04-06T03:45:08.962Z,16.37
2019-04-06T03:46:12.637Z,17.73
2019-04-06T03:47:16.277Z,16.17
2019-04-06T03:48:20.079Z,15.90
2019-04-06T03:49:23.737Z,17.77
2019-04-06T03:50:27.398Z,17.90
2019-04-06T03:51:31.050Z,16.20
2019-04-06T03:52:34.716Z,16.20
2019-04-06T03:53:39.093Z,16.90
2019-04-06T03:54:42.732Z,17.90
2019-04-06T03:55:46.296Z,17.90
2019-04-06T03:56:49.960Z,17.00
2019-04-06T03:57:53.614Z,22.03
2019-04-06T03:58:57.503Z,20.00
2019-04-06T04:00:01.574Z,17.80
2019-04-06T04:01:05.425Z,17.13
2019-04-06T04:02:09.068Z,16.97
2019-04-06T04:03:12.687Z,15.73
2019-04-06T04:04:16.568Z,15.83
2019-04-06T04:05:20.268Z,15.83
2019-04-06T04:06:23.930Z,15.50
2019-04-06T04:07:27.655Z,17.00
2019-04-06T04:08:31.346Z,19.57
2019-04-06T04:09:35.086Z,15.73
2019-04-06T04:10:39.726Z,15.53
2019-04-06T04:11:43.642Z,15.50
2019-04-06T04:12:47.379Z,15.57
2019-04-06T04:13:51.031Z,15.63
2019-04-06T04:14:54.838Z,16.03
2019-04-06T04:15:58.565Z,15.40
2019-04-06T04:17:02.423Z,15.43
2019-04-06T04:18:08.953Z,15.60
2019-04-06T04:19:12.856Z,14.63
2019-04-06T04:20:19.483Z,15.53
2019-04-06T04:21:23.168Z,16.43
2019-04-06T04:22:30.490Z,15.23
2019-04-06T04:23:34.247Z,16.17
2019-04-06T04:24:38.457Z,14.13
2019-04-06T04:25:42.144Z,15.63
2019-04-06T04:26:46.124Z,18.30
2019-04-06T04:27:49.933Z,16.53
2019-04-06T04:28:53.811Z,15.73
2019-04-06T04:29:57.580Z,15.00
2019-04-06T04:31:01.436Z,15.00
2019-04-06T04:32:05.167Z,15.37
2019-04-06T04:33:08.795Z,14.30
2019-04-06T04:34:12.579Z,14.20
2019-04-06T04:35:18.555Z,13.33
2019-04-06T04:36:21.701Z,15.67
2019-04-06T04:37:25.349Z,15.63
2019-04-06T04:38:29.472Z,14.07
2019-04-06T04:39:33.575Z,14.40
2019-04-06T04:40:37.207Z,16.53
2019-04-06T04:41:40.848Z,15.67
2019-04-06T04:42:44.491Z,15.43
2019-04-06T04:43:48.280Z,15.13
2019-04-06T04:44:51.972Z,15.70
2019-04-06T04:45:55.570Z,14.70
2019-04-06T04:46:59.360Z,14.43
2019-04-06T04:48:03.169Z,14.23
2019-04-06T04:49:07.115Z,13.87
2019-04-06T04:50:11.466Z,15.00
2019-04-06T04:51:15.181Z,14.40
2019-04-06T04:52:18.844Z,14.60
2019-04-06T04:53:23.563Z,14.60
2019-04-06T04:54:27.207Z,14.87
2019-04-06T04:55:30.964Z,14.17
2019-04-06T04:56:34.603Z,14.50
2019-04-06T04:57:41.183Z,14.03
2019-04-06T04:58:43.690Z,13.80
2019-04-06T04:59:47.599Z,13.90
2019-04-06T05:00:51.370Z,14.73
2019-04-06T05:01:55.086Z,15.33
2019-04-06T05:02:58.714Z,16.33
2019-04-06T05:04:02.355Z,17.10
2019-04-06T05:05:09.291Z,16.90
2019-04-06T05:06:12.417Z,15.60
2019-04-06T05:07:16.274Z,14.97
2019-04-06T05:08:19.956Z,15.43
2019-04-06T05:09:23.579Z,16.47
2019-04-06T05:10:27.215Z,20.43
2019-04-06T05:11:30.950Z,17.80
2019-04-06T05:12:34.622Z,16.60
2019-04-06T05:13:38.278Z,16.50
2019-04-06T05:15:01.378Z,16.37
2019-04-06T05:16:12.881Z,16.30
2019-04-06T05:17:16.911Z,15.07
2019-04-06T05:18:20.591Z,15.87
2019-04-06T05:19:24.155Z,15.20
2019-04-06T05:20:27.938Z,16.87
2019-04-06T05:21:31.789Z,17.43
2019-04-06T05:22:35.505Z,18.27
2019-04-06T05:23:39.262Z,18.07
2019-04-06T05:24:42.895Z,18.20
2019-04-06T05:25:46.530Z,17.07
2019-04-06T05:26:50.209Z,16.63
2019-04-06T05:27:53.905Z,18.67
2019-04-06T05:28:57.723Z,19.50
2019-04-06T05:30:01.313Z,19.03
2019-04-06T05:31:05.227Z,17.90
2019-04-06T05:32:09.024Z,18.17
2019-04-06T05:33:12.723Z,18.93
2019-04-06T05:34:16.347Z,19.17
2019-04-06T05:35:20.009Z,19.50
2019-04-06T05:36:23.660Z,21.90
2019-04-06T05:37:27.377Z,25.23
2019-04-06T05:38:31.010Z,31.77
2019-04-06T05:39:34.694Z,21.70
2019-04-06T05:40:38.281Z,20.70
2019-04-06T05:41:41.931Z,20.93
2019-04-06T05:42:45.990Z,18.13
2019-04-06T05:43:49.636Z,17.67
2019-04-06T05:44:53.300Z,17.73
2019-04-06T05:45:57.021Z,16.40
2019-04-06T05:47:00.856Z,17.90
2019-04-06T05:48:04.930Z,18.80
2019-04-06T05:49:08.726Z,17.30
2019-04-06T05:50:12.481Z,19.50
2019-04-06T05:51:16.144Z,17.67
2019-04-06T05:52:19.958Z,17.97
2019-04-06T05:53:23.714Z,19.10
2019-04-06T05:54:27.371Z,20.07
2019-04-06T05:55:31.033Z,19.17
2019-04-06T05:56:34.887Z,19.77
2019-04-06T05:57:38.587Z,19.03
2019-04-06T05:58:44.239Z,20.93
2019-04-06T05:59:47.437Z,20.33
2019-04-06T06:00:51.187Z,19.10
2019-04-06T06:01:54.838Z,19.40
2019-04-06T06:02:58.591Z,19.50
2019-04-06T06:04:02.250Z,21.20
2019-04-06T06:05:06.114Z,20.70
2019-04-06T06:06:12.335Z,21.00
2019-04-06T06:07:15.147Z,19.27
2019-04-06T06:08:18.873Z,20.80
2019-04-06T06:09:22.510Z,20.03
2019-04-06T06:10:26.629Z,19.13
2019-04-06T06:11:30.627Z,19.23
2019-04-06T06:12:34.637Z,18.97
2019-04-06T06:13:39.430Z,19.67
2019-04-06T06:14:43.385Z,19.47
2019-04-06T06:15:47.031Z,20.20
2019-04-06T06:16:50.698Z,19.67
2019-04-06T06:17:54.537Z,20.13
2019-04-06T06:18:58.395Z,19.33
2019-04-06T06:20:02.099Z,19.13
2019-04-06T06:21:05.721Z,19.60
2019-04-06T06:22:11.795Z,19.63
2019-04-06T06:23:18.447Z,20.63
2019-04-06T06:24:22.113Z,19.23
2019-04-06T06:25:27.851Z,19.00
2019-04-06T06:26:31.177Z,18.57
2019-04-06T06:27:35.036Z,18.93
2019-04-06T06:28:42.360Z,19.03
2019-04-06T06:29:46.023Z,18.63
2019-04-06T06:30:49.719Z,20.87
2019-04-06T06:31:53.367Z,19.60
2019-04-06T06:32:57.001Z,20.73
2019-04-06T06:34:00.732Z,17.80
2019-04-06T06:35:05.284Z,19.73
2019-04-06T06:36:08.958Z,19.63
2019-04-06T06:37:12.802Z,20.10
2019-04-06T06:38:16.434Z,19.80
2019-04-06T06:39:20.095Z,18.93
2019-04-06T06:40:23.779Z,19.50
2019-04-06T06:41:27.427Z,20.53
2019-04-06T06:42:31.173Z,21.33
2019-04-06T06:43:34.839Z,22.57
2019-04-06T06:44:38.487Z,21.30
2019-04-06T06:45:43.673Z,20.17
2019-04-06T06:46:47.424Z,20.73
2019-04-06T06:47:51.080Z,20.33
2019-04-06T06:48:55.105Z,20.47
2019-04-06T06:49:58.745Z,19.93
2019-04-06T06:51:02.408Z,19.47
2019-04-06T06:52:06.091Z,18.57
2019-04-06T06:53:09.745Z,18.90
2019-04-06T06:54:13.400Z,20.47
2019-04-06T06:55:17.190Z,19.87
2019-04-06T06:56:20.861Z,19.70
2019-04-06T06:57:24.564Z,17.80
2019-04-06T06:58:28.227Z,18.87
2019-04-06T06:59:31.865Z,18.00
2019-04-06T07:00:35.533Z,19.60
2019-04-06T07:01:39.237Z,17.70
2019-04-06T07:02:42.977Z,17.73
2019-04-06T07:03:46.632Z,17.90
2019-04-06T07:04:50.321Z,18.03
2019-04-06T07:05:54.153Z,17.90
2019-04-06T07:06:57.921Z,17.37
2019-04-06T07:08:01.571Z,17.83
2019-04-06T07:09:07.655Z,18.97
2019-04-06T07:10:11.508Z,18.10
2019-04-06T07:11:15.101Z,17.67
2019-04-06T07:12:18.953Z,18.23
2019-04-06T07:13:22.630Z,18.40
2019-04-06T07:14:26.271Z,19.03
2019-04-06T07:15:29.982Z,17.67
2019-04-06T07:16:33.719Z,20.57
2019-04-06T07:17:37.408Z,19.87
2019-04-06T07:18:41.059Z,19.97
2019-04-06T07:19:44.863Z,20.63
2019-04-06T07:20:48.591Z,23.30
2019-04-06T07:21:52.289Z,22.53
2019-04-06T07:22:56.005Z,22.13
2019-04-06T07:23:59.646Z,22.23
2019-04-06T07:25:03.279Z,20.80
2019-04-06T07:26:07.010Z,21.27
2019-04-06T07:27:11.022Z,20.67
2019-04-06T07:28:14.692Z,19.30
2019-04-06T07:29:18.338Z,18.93
2019-04-06T07:30:22.447Z,20.60
2019-04-06T07:31:26.068Z,20.43
2019-04-06T07:32:29.760Z,19.40
2019-04-06T07:33:33.399Z,19.20
2019-04-06T07:34:37.171Z,19.53
2019-04-06T07:35:40.815Z,18.93
2019-04-06T07:36:44.451Z,19.97
2019-04-06T07:37:48.153Z,20.33
2019-04-06T07:38:51.865Z,19.23
2019-04-06T07:39:55.496Z,19.83
2019-04-06T07:40:59.235Z,18.03
2019-04-06T07:42:03.084Z,18.57
2019-04-06T07:43:06.783Z,19.30
2019-04-06T07:44:10.500Z,17.87
2019-04-06T07:45:14.760Z,16.50
2019-04-06T07:46:18.487Z,17.93
2019-04-06T07:47:22.179Z,17.67
2019-04-06T07:48:26.027Z,16.73
2019-04-06T07:49:29.670Z,15.33
2019-04-06T07:50:33.340Z,16.10
2019-04-06T07:51:36.997Z,15.90
2019-04-06T07:52:40.978Z,15.30
2019-04-06T07:53:44.973Z,16.80
2019-04-06T07:54:48.603Z,16.43
2019-04-06T07:55:52.254Z,16.33
2019-04-06T07:56:55.918Z,16.13
2019-04-06T07:57:59.593Z,16.17
2019-04-06T07:59:03.211Z,16.43
2019-04-06T08:00:11.133Z,17.13
2019-04-06T08:01:14.791Z,16.57
2019-04-06T08:02:18.540Z,18.10
2019-04-06T08:03:22.215Z,17.23
2019-04-06T08:04:25.946Z,16.83
2019-04-06T08:05:29.918Z,16.77
2019-04-06T08:06:33.721Z,16.43
2019-04-06T08:07:37.664Z,16.43
2019-04-06T08:08:41.377Z,15.60
2019-04-06T08:09:45.123Z,16.50
2019-04-06T08:10:49.318Z,15.57
2019-04-06T08:11:53.265Z,16.20
2019-04-06T08:12:57.013Z,16.10
2019-04-06T08:14:00.617Z,14.93
2019-04-06T08:15:06.549Z,15.53
2019-04-06T08:16:10.844Z,14.27
2019-04-06T08:17:14.492Z,14.63
2019-04-06T08:18:18.247Z,14.87
2019-04-06T08:19:22.040Z,15.33
2019-04-06T08:20:25.835Z,14.77
2019-04-06T08:21:29.500Z,15.57
2019-04-06T08:22:33.147Z,14.87
2019-04-06T08:23:36.802Z,14.20
2019-04-06T08:24:40.532Z,13.83
2019-04-06T08:25:45.219Z,14.70
2019-04-06T08:26:48.897Z,15.20
2019-04-06T08:27:52.780Z,15.37
2019-04-06T08:29:01.947Z,14.27
2019-04-06T08:30:01.990Z,14.10
2019-04-06T08:31:05.724Z,13.77
2019-04-06T08:32:09.401Z,13.37
2019-04-06T08:33:13.071Z,15.00
2019-04-06T08:34:18.215Z,13.80
2019-04-06T08:35:26.182Z,13.80
2019-04-06T08:36:27.190Z,13.97
2019-04-06T08:37:31.290Z,13.73
2019-04-06T08:38:34.968Z,14.10
2019-04-06T08:39:38.657Z,13.60
2019-04-06T08:40:42.348Z,13.73
2019-04-06T08:41:46.002Z,14.37
2019-04-06T08:42:49.628Z,13.77
2019-04-06T08:43:53.280Z,13.20
2019-04-06T08:44:57.206Z,13.57
2019-04-06T08:46:00.859Z,13.40
2019-04-06T08:47:04.494Z,13.07
2019-04-06T08:48:08.034Z,12.53
2019-04-06T08:49:11.698Z,12.67
2019-04-06T08:50:15.447Z,13.20
2019-04-06T08:51:19.102Z,11.60
2019-04-06T08:52:22.755Z,11.00
2019-04-06T08:53:26.452Z,11.73
2019-04-06T08:54:30.026Z,12.13
2019-04-06T08:55:33.693Z,12.73
2019-04-06T08:56:37.705Z,13.30
2019-04-06T08:57:41.416Z,13.30
2019-04-06T08:58:45.092Z,12.73
2019-04-06T08:59:48.684Z,12.53
2019-04-06T09:00:52.653Z,11.90
2019-04-06T09:01:56.280Z,11.60
2019-04-06T09:02:59.935Z,10.80
2019-04-06T09:04:04.025Z,10.73
2019-04-06T09:05:07.792Z,11.50
2019-04-06T09:06:11.444Z,11.43
2019-04-06T09:07:15.092Z,11.10
2019-04-06T09:08:18.745Z,10.75
2019-04-06T09:09:22.453Z,11.22
2019-04-06T09:10:26.175Z,10.45
2019-04-06T09:11:29.868Z,11.10
2019-04-06T09:12:33.458Z,10.93
2019-04-06T09:13:37.040Z,11.60
2019-04-06T09:14:40.732Z,11.63
2019-04-06T09:15:44.390Z,11.55
2019-04-06T09:16:47.963Z,11.18
2019-04-06T09:17:51.741Z,11.20
2019-04-06T09:18:55.430Z,10.85
2019-04-06T09:19:59.312Z,10.90
2019-04-06T09:21:02.986Z,10.43
2019-04-06T09:22:06.645Z,10.03
2019-04-06T09:23:10.375Z,10.63
2019-04-06T09:24:14.269Z,10.15
2019-04-06T09:25:18.145Z,10.63
2019-04-06T09:26:21.713Z,9.78
2019-04-06T09:27:25.364Z,9.30
2019-04-06T09:28:29.026Z,9.53
2019-04-06T09:29:32.864Z,9.33
2019-04-06T09:30:36.708Z,9.85
2019-04-06T09:31:40.385Z,9.43
2019-04-06T09:32:44.121Z,9.70
2019-04-06T09:33:47.819Z,9.70
2019-04-06T09:34:51.482Z,10.55
2019-04-06T09:35:55.229Z,8.63
2019-04-06T09:36:58.941Z,9.05
2019-04-06T09:38:04.146Z,9.83
2019-04-06T09:39:07.838Z,9.73
2019-04-06T09:40:11.769Z,9.60
2019-04-06T09:41:15.449Z,9.45
2019-04-06T09:42:19.089Z,9.95
2019-04-06T09:43:22.813Z,8.78
2019-04-06T09:44:40.949Z,8.95
2019-04-06T09:45:46.481Z,8.55
2019-04-06T09:47:10.283Z,9.00
2019-04-06T09:48:18.418Z,8.70
2019-04-06T09:49:39.926Z,8.33
2019-04-06T09:51:01.093Z,7.67
2019-04-06T09:52:06.372Z,6.67
2019-04-06T09:53:17.843Z,6.65
2019-04-06T09:54:38.425Z,6.30
2019-04-06T09:55:55.547Z,6.62
2019-04-06T09:57:03.846Z,6.15
2019-04-06T09:58:15.395Z,6.60
2019-04-06T09:59:34.874Z,6.72
2019-04-06T10:00:34.225Z,6.58
2019-04-06T10:01:39.727Z,6.58
2019-04-06T10:02:45.014Z,6.80
2019-04-06T10:03:56.380Z,6.87
2019-04-06T10:05:07.517Z,6.75
2019-04-06T10:06:32.424Z,8.05
2019-04-06T10:07:43.593Z,7.03
2019-04-06T10:08:57.185Z,7.05
2019-04-06T10:10:02.806Z,7.25
2019-04-06T10:11:08.437Z,6.40
2019-04-06T10:12:32.317Z,6.55
2019-04-06T10:13:37.598Z,6.55
2019-04-06T10:14:45.590Z,6.33
2019-04-06T10:15:56.964Z,6.53
2019-04-06T10:17:11.320Z,6.65
2019-04-06T10:18:19.265Z,6.85
2019-04-06T10:19:42.744Z,6.62
2019-04-06T10:20:51.047Z,6.28
2019-04-06T10:21:56.391Z,7.10
2019-04-06T10:23:01.753Z,6.42
2019-04-06T10:24:19.120Z,6.53
2019-04-06T10:25:39.478Z,6.97
2019-04-06T10:26:48.326Z,6.35
2019-04-06T10:27:56.243Z,6.62
2019-04-06T10:29:04.429Z,6.20
2019-04-06T10:30:22.430Z,6.75
2019-04-06T10:31:27.725Z,6.45
2019-04-06T10:32:48.867Z,6.45
2019-04-06T10:33:54.080Z,7.00
2019-04-06T10:35:02.173Z,6.95
2019-04-06T10:36:24.871Z,6.50
2019-04-06T10:37:45.238Z,6.47
2019-04-06T10:38:56.286Z,6.05
2019-04-06T10:40:01.556Z,6.37
2019-04-06T10:41:06.861Z,6.72
2019-04-06T10:42:12.414Z,6.53
2019-04-06T10:43:27.360Z,6.50
2019-04-06T10:44:32.727Z,6.55
2019-04-06T10:45:43.848Z,6.83
2019-04-06T10:46:49.166Z,5.95
2019-04-06T10:48:06.633Z,6.70
2019-04-06T10:49:27.556Z,6.00
2019-04-06T10:50:44.733Z,6.22
2019-04-06T10:52:06.331Z,6.45
2019-04-06T10:53:20.856Z,7.10
2019-04-06T10:54:34.513Z,6.72
2019-04-06T10:55:39.852Z,6.42
2019-04-06T10:56:45.426Z,7.45
2019-04-06T10:57:50.733Z,7.65
2019-04-06T10:59:15.261Z,7.20
2019-04-06T11:00:23.758Z,6.47
2019-04-06T11:01:29.037Z,6.33
2019-04-06T11:02:47.242Z,7.25
2019-04-06T11:03:52.535Z,7.77
2019-04-06T11:04:58.217Z,7.67
2019-04-06T11:06:06.171Z,7.23
2019-04-06T11:07:30.179Z,6.57
2019-04-06T11:08:47.855Z,6.80
2019-04-06T11:09:59.143Z,7.17
2019-04-06T11:11:04.559Z,6.77
2019-04-06T11:12:19.404Z,6.63
2019-04-06T11:13:30.612Z,7.10
2019-04-06T11:14:36.551Z,6.73
2019-04-06T11:15:44.819Z,6.60
2019-04-06T11:17:17.847Z,7.00
2019-04-06T11:18:29.249Z,6.77
2019-04-06T11:19:49.629Z,7.43
2019-04-06T11:21:10.122Z,7.03
2019-04-06T11:22:33.885Z,7.33
2019-04-06T11:23:55.195Z,6.53
2019-04-06T11:25:15.666Z,6.47
2019-04-06T11:26:39.343Z,6.37
2019-04-06T11:27:47.247Z,6.27
2019-04-06T11:29:10.828Z,6.40
2019-04-06T11:30:19.192Z,6.03
2019-04-06T11:31:40.666Z,6.67
2019-04-06T11:32:51.855Z,6.43
2019-04-06T11:34:12.512Z,6.40
2019-04-06T11:35:32.366Z,6.53
2019-04-06T11:36:50.022Z,6.13
2019-04-06T11:37:57.874Z,6.47
2019-04-06T11:39:22.433Z,6.20
2019-04-06T11:40:44.153Z,6.10
2019-04-06T11:42:01.424Z,6.40
2019-04-06T11:43:31.148Z,6.00
2019-04-06T11:44:48.905Z,5.90
2019-04-06T11:46:13.118Z,5.60
2019-04-06T11:47:18.588Z,6.80
2019-04-06T11:48:23.928Z,6.53
2019-04-06T11:49:32.212Z,6.47
2019-04-06T11:50:55.836Z,6.60
2019-04-06T11:52:16.276Z,6.03
2019-04-06T11:53:27.277Z,6.10
2019-04-06T11:54:32.609Z,6.30
2019-04-06T11:55:54.107Z,5.50
2019-04-06T11:57:05.448Z,6.10
2019-04-06T11:58:23.055Z,6.05
2019-04-06T11:59:29.079Z,6.47
2019-04-06T12:00:50.606Z,6.30
2019-04-06T12:02:04.816Z,6.33
2019-04-06T12:03:16.075Z,6.35
2019-04-06T12:04:38.001Z,6.33
2019-04-06T12:05:49.200Z,5.60
2019-04-06T12:07:03.395Z,5.75
2019-04-06T12:08:08.906Z,6.65
2019-04-06T12:09:19.774Z,5.90
2019-04-06T12:10:25.079Z,6.12
2019-04-06T12:11:42.464Z,6.28
2019-04-06T12:12:55.696Z,5.67
2019-04-06T12:14:16.505Z,6.25
2019-04-06T12:15:36.835Z,6.65
2019-04-06T12:16:42.207Z,6.30
2019-04-06T12:18:06.006Z,5.62
2019-04-06T12:19:11.347Z,5.78
2019-04-06T12:20:32.882Z,6.70
2019-04-06T12:21:38.616Z,6.17
2019-04-06T12:22:43.993Z,5.75
2019-04-06T12:23:58.160Z,6.15
2019-04-06T12:25:19.823Z,6.30
2019-04-06T12:26:43.319Z,6.12
2019-04-06T12:28:04.942Z,6.37
2019-04-06T12:29:26.529Z,5.80
2019-04-06T12:30:38.477Z,6.03
2019-04-06T12:31:47.681Z,5.97
2019-04-06T12:32:52.961Z,6.20
2019-04-06T12:34:00.799Z,6.17
2019-04-06T12:35:07.837Z,5.97
2019-04-06T12:36:16.113Z,6.12
2019-04-06T12:37:21.764Z,5.85
2019-04-06T12:38:45.806Z,6.30
2019-04-06T12:39:54.736Z,5.65
2019-04-06T12:41:12.283Z,5.55
2019-04-06T12:42:17.478Z,5.75
2019-04-06T12:43:34.770Z,6.17
2019-04-06T12:44:40.045Z,5.92
2019-04-06T12:45:51.445Z,5.83
2019-04-06T12:47:03.024Z,5.95
2019-04-06T12:48:08.296Z,5.65
2019-04-06T12:49:16.705Z,5.03
2019-04-06T12:50:24.697Z,5.72
2019-04-06T12:51:30.060Z,6.15
2019-04-06T12:52:44.722Z,6.25
2019-04-06T12:54:02.570Z,6.28
2019-04-06T12:55:17.291Z,5.75
2019-04-06T12:56:28.673Z,5.87
2019-04-06T12:57:50.616Z,5.80
2019-04-06T12:59:12.453Z,5.95
2019-04-06T13:00:23.817Z,5.75
2019-04-06T13:01:38.238Z,5.95
2019-04-06T13:02:59.853Z,5.87
2019-04-06T13:04:21.630Z,5.95
2019-04-06T13:05:38.911Z,5.97
2019-04-06T13:07:02.318Z,6.22
2019-04-06T13:08:07.620Z,6.92
2019-04-06T13:09:29.562Z,6.20
2019-04-06T13:10:46.675Z,7.12
2019-04-06T13:11:57.938Z,6.30
2019-04-06T13:13:12.232Z,6.50
2019-04-06T13:14:20.548Z,6.62
2019-04-06T13:15:28.839Z,6.33
2019-04-06T13:16:34.152Z,6.72
2019-04-06T13:17:57.937Z,6.15
2019-04-06T13:19:19.599Z,6.65
2019-04-06T13:20:32.460Z,6.62
2019-04-06T13:21:33.287Z,6.75
2019-04-06T13:22:54.927Z,6.85
2019-04-06T13:24:06.474Z,6.37
2019-04-06T13:25:21.324Z,5.92
2019-04-06T13:26:43.123Z,5.90
2019-04-06T13:28:04.591Z,5.92
2019-04-06T13:29:12.384Z,5.80
2019-04-06T13:30:17.776Z,5.92
2019-04-06T13:31:25.844Z,5.83
2019-04-06T13:32:34.593Z,5.60
2019-04-06T13:33:56.154Z,5.62
2019-04-06T13:35:10.527Z,6.03
2019-04-06T13:36:18.585Z,6.10
2019-04-06T13:37:40.069Z,5.95
2019-04-06T13:38:45.434Z,5.42
2019-04-06T13:39:50.702Z,6.12
2019-04-06T13:41:04.916Z,5.30
2019-04-06T13:42:19.063Z,5.65
2019-04-06T13:43:33.377Z,6.03
2019-04-06T13:44:38.739Z,6.35
2019-04-06T13:45:44.013Z,5.55
2019-04-06T13:47:05.505Z,5.65
2019-04-06T13:48:27.207Z,5.60
2019-04-06T13:49:35.315Z,5.55
2019-04-06T13:50:40.585Z,5.42
2019-04-06T13:51:46.213Z,5.50
2019-04-06T13:52:57.541Z,5.62
2019-04-06T13:54:11.846Z,5.85
2019-04-06T13:55:28.782Z,5.22
2019-04-06T13:56:34.322Z,6.03
2019-04-06T13:57:39.671Z,5.30
2019-04-06T13:58:57.402Z,5.60
2019-04-06T14:00:11.605Z,5.30
2019-04-06T14:01:19.860Z,5.37
2019-04-06T14:02:43.681Z,5.20
2019-04-06T14:04:03.839Z,5.23
2019-04-06T14:05:18.526Z,5.20
2019-04-06T14:06:27.097Z,5.40
2019-04-06T14:07:32.321Z,5.47
2019-04-06T14:08:46.859Z,5.93
2019-04-06T14:09:58.685Z,5.40
2019-04-06T14:11:20.472Z,5.33
2019-04-06T14:12:26.140Z,5.60
2019-04-06T14:13:34.556Z,5.27
2019-04-06T14:14:48.959Z,5.30
2019-04-06T14:15:54.492Z,5.70
2019-04-06T14:17:12.004Z,4.97
2019-04-06T14:18:17.287Z,6.00
2019-04-06T14:19:38.869Z,5.57
2019-04-06T14:20:52.704Z,5.20
2019-04-06T14:22:01.345Z,5.97
2019-04-06T14:23:21.778Z,5.53
2019-04-06T14:24:27.298Z,6.33
2019-04-06T14:25:35.654Z,5.70
2019-04-06T14:26:49.999Z,6.10
2019-04-06T14:28:08.915Z,5.20
2019-04-06T14:29:19.797Z,5.50
2019-04-06T14:30:41.609Z,5.00